sensor_id;sensor_type;location;lat;lon;timestamp;P1;durP1;ratioP1;P2;durP2;ratioP2
17340;SDS011;8788;49.930;8.660;2023-04-25T00:02:02;2.58;;;2.38;;
17340;SDS011;8788;49.930;8.660;2023-04-25T00:04:30;3.00;;;2.30;;
17340;SDS011;8788;49.930;8.660;2023-04-25T00:06:58;2.83;;;2.13;;
17340;SDS011;8788;49.930;8.660;2023-04-25T00:09:27;2.72;;;2.53;;
17340;SDS011;8788;49.930;8.660;2023-04-25T00:11:55;2.55;;;2.30;;
17340;SDS011;8788;49.930;8.660;2023-04-25T00:14:22;2.70;;;2.47;;
17340;SDS011;8788;49.930;8.660;2023-04-25T00:16:50;3.28;;;2.97;;
17340;SDS011;8788;49.930;8.660;2023-04-25T00:19:19;3.10;;;2.85;;
17340;SDS011;8788;49.930;8.660;2023-04-25T00:21:46;4.40;;;2.80;;
17340;SDS011;8788;49.930;8.660;2023-04-25T00:24:13;4.40;;;3.00;;
17340;SDS011;8788;49.930;8.660;2023-04-25T00:26:40;3.92;;;3.55;;
17340;SDS011;8788;49.930;8.660;2023-04-25T00:29:07;4.15;;;3.30;;
17340;SDS011;8788;49.930;8.660;2023-04-25T00:31:34;5.97;;;3.13;;
17340;SDS011;8788;49.930;8.660;2023-04-25T00:34:03;5.55;;;4.32;;
17340;SDS011;8788;49.930;8.660;2023-04-25T00:36:30;3.78;;;3.45;;
17340;SDS011;8788;49.930;8.660;2023-04-25T00:38:57;5.35;;;3.72;;
17340;SDS011;8788;49.930;8.660;2023-04-25T00:41:24;3.92;;;3.35;;
17340;SDS011;8788;49.930;8.660;2023-04-25T00:43:52;3.65;;;3.35;;
17340;SDS011;8788;49.930;8.660;2023-04-25T00:46:21;3.50;;;3.20;;
17340;SDS011;8788;49.930;8.660;2023-04-25T00:48:48;3.90;;;3.50;;
17340;SDS011;8788;49.930;8.660;2023-04-25T00:51:19;4.22;;;3.83;;
17340;SDS011;8788;49.930;8.660;2023-04-25T00:53:47;4.13;;;3.72;;
17340;SDS011;8788;49.930;8.660;2023-04-25T00:56:15;4.47;;;3.92;;
17340;SDS011;8788;49.930;8.660;2023-04-25T00:58:42;3.92;;;3.55;;
17340;SDS011;8788;49.930;8.660;2023-04-25T01:01:10;5.18;;;3.95;;
17340;SDS011;8788;49.930;8.660;2023-04-25T01:03:38;4.22;;;3.80;;
17340;SDS011;8788;49.930;8.660;2023-04-25T01:06:07;3.83;;;3.42;;
17340;SDS011;8788;49.930;8.660;2023-04-25T01:08:36;4.32;;;3.90;;
17340;SDS011;8788;49.930;8.660;2023-04-25T01:11:04;4.00;;;3.60;;
17340;SDS011;8788;49.930;8.660;2023-04-25T01:13:31;3.80;;;3.47;;
17340;SDS011;8788;49.930;8.660;2023-04-25T01:15:59;3.83;;;3.42;;
17340;SDS011;8788;49.930;8.660;2023-04-25T01:18:27;4.47;;;3.97;;
17340;SDS011;8788;49.930;8.660;2023-04-25T01:20:54;5.82;;;3.80;;
17340;SDS011;8788;49.930;8.660;2023-04-25T01:23:23;3.90;;;3.60;;
17340;SDS011;8788;49.930;8.660;2023-04-25T01:25:51;5.68;;;3.50;;
17340;SDS011;8788;49.930;8.660;2023-04-25T01:28:18;4.63;;;4.20;;
17340;SDS011;8788;49.930;8.660;2023-04-25T01:30:47;4.70;;;3.85;;
17340;SDS011;8788;49.930;8.660;2023-04-25T01:33:14;5.32;;;4.47;;
17340;SDS011;8788;49.930;8.660;2023-04-25T01:35:42;4.68;;;4.13;;
17340;SDS011;8788;49.930;8.660;2023-04-25T01:38:10;3.75;;;3.40;;
17340;SDS011;8788;49.930;8.660;2023-04-25T01:40:39;4.90;;;4.45;;
17340;SDS011;8788;49.930;8.660;2023-04-25T01:43:07;4.97;;;4.45;;
17340;SDS011;8788;49.930;8.660;2023-04-25T01:45:36;4.60;;;4.20;;
17340;SDS011;8788;49.930;8.660;2023-04-25T01:48:05;4.28;;;3.88;;
17340;SDS011;8788;49.930;8.660;2023-04-25T01:50:32;4.50;;;4.10;;
17340;SDS011;8788;49.930;8.660;2023-04-25T01:52:59;5.30;;;4.80;;
17340;SDS011;8788;49.930;8.660;2023-04-25T01:55:27;4.13;;;3.72;;
17340;SDS011;8788;49.930;8.660;2023-04-25T01:58:07;4.97;;;4.40;;
17340;SDS011;8788;49.930;8.660;2023-04-25T02:01:01;4.75;;;3.53;;
17340;SDS011;8788;49.930;8.660;2023-04-25T02:03:35;4.10;;;3.33;;
17340;SDS011;8788;49.930;8.660;2023-04-25T02:06:10;4.05;;;3.70;;
17340;SDS011;8788;49.930;8.660;2023-04-25T02:08:41;4.90;;;3.75;;
17340;SDS011;8788;49.930;8.660;2023-04-25T02:11:10;5.47;;;4.00;;
17340;SDS011;8788;49.930;8.660;2023-04-25T02:13:45;4.15;;;3.75;;
17340;SDS011;8788;49.930;8.660;2023-04-25T02:16:32;4.15;;;3.75;;
17340;SDS011;8788;49.930;8.660;2023-04-25T02:19:01;4.53;;;3.97;;
17340;SDS011;8788;49.930;8.660;2023-04-25T02:21:29;5.20;;;4.72;;
17340;SDS011;8788;49.930;8.660;2023-04-25T02:23:57;5.97;;;4.38;;
17340;SDS011;8788;49.930;8.660;2023-04-25T02:26:27;4.60;;;4.20;;
17340;SDS011;8788;49.930;8.660;2023-04-25T02:28:55;5.45;;;4.50;;
17340;SDS011;8788;49.930;8.660;2023-04-25T02:31:23;4.85;;;4.35;;
17340;SDS011;8788;49.930;8.660;2023-04-25T02:33:51;4.47;;;4.07;;
17340;SDS011;8788;49.930;8.660;2023-04-25T02:36:18;6.20;;;4.43;;
17340;SDS011;8788;49.930;8.660;2023-04-25T02:38:47;4.47;;;4.07;;
17340;SDS011;8788;49.930;8.660;2023-04-25T02:41:14;5.63;;;4.15;;
17340;SDS011;8788;49.930;8.660;2023-04-25T02:43:41;4.55;;;4.15;;
17340;SDS011;8788;49.930;8.660;2023-04-25T02:46:10;4.45;;;4.05;;
17340;SDS011;8788;49.930;8.660;2023-04-25T02:48:38;4.95;;;4.45;;
17340;SDS011;8788;49.930;8.660;2023-04-25T02:51:05;4.43;;;4.03;;
17340;SDS011;8788;49.930;8.660;2023-04-25T02:53:33;4.57;;;4.18;;
17340;SDS011;8788;49.930;8.660;2023-04-25T02:56:00;4.55;;;3.80;;
17340;SDS011;8788;49.930;8.660;2023-04-25T02:58:27;4.68;;;4.18;;
17340;SDS011;8788;49.930;8.660;2023-04-25T03:00:54;4.57;;;4.07;;
17340;SDS011;8788;49.930;8.660;2023-04-25T03:03:23;5.28;;;4.72;;
17340;SDS011;8788;49.930;8.660;2023-04-25T03:05:51;4.63;;;4.22;;
17340;SDS011;8788;49.930;8.660;2023-04-25T03:08:26;4.85;;;4.30;;
17340;SDS011;8788;49.930;8.660;2023-04-25T03:10:58;5.60;;;3.95;;
17340;SDS011;8788;49.930;8.660;2023-04-25T03:13:26;9.15;;;4.45;;
17340;SDS011;8788;49.930;8.660;2023-04-25T03:15:55;5.63;;;4.35;;
17340;SDS011;8788;49.930;8.660;2023-04-25T03:18:24;6.00;;;4.20;;
17340;SDS011;8788;49.930;8.660;2023-04-25T03:20:51;4.93;;;4.43;;
17340;SDS011;8788;49.930;8.660;2023-04-25T03:23:18;5.22;;;4.50;;
17340;SDS011;8788;49.930;8.660;2023-04-25T03:25:45;4.97;;;4.40;;
17340;SDS011;8788;49.930;8.660;2023-04-25T03:28:12;6.15;;;4.97;;
17340;SDS011;8788;49.930;8.660;2023-04-25T03:30:39;6.28;;;5.20;;
17340;SDS011;8788;49.930;8.660;2023-04-25T03:33:06;4.68;;;4.20;;
17340;SDS011;8788;49.930;8.660;2023-04-25T03:35:35;5.22;;;4.47;;
17340;SDS011;8788;49.930;8.660;2023-04-25T03:38:02;5.30;;;4.10;;
17340;SDS011;8788;49.930;8.660;2023-04-25T03:40:33;7.00;;;4.88;;
17340;SDS011;8788;49.930;8.660;2023-04-25T03:43:07;7.60;;;5.90;;
17340;SDS011;8788;49.930;8.660;2023-04-25T03:45:36;6.25;;;5.35;;
17340;SDS011;8788;49.930;8.660;2023-04-25T03:48:03;6.90;;;4.85;;
17340;SDS011;8788;49.930;8.660;2023-04-25T03:50:31;5.88;;;5.28;;
17340;SDS011;8788;49.930;8.660;2023-04-25T03:53:00;5.75;;;5.15;;
17340;SDS011;8788;49.930;8.660;2023-04-25T03:55:32;4.80;;;4.30;;
17340;SDS011;8788;49.930;8.660;2023-04-25T03:58:00;5.60;;;5.00;;
17340;SDS011;8788;49.930;8.660;2023-04-25T04:00:27;6.95;;;5.40;;
17340;SDS011;8788;49.930;8.660;2023-04-25T04:02:54;5.43;;;4.82;;
17340;SDS011;8788;49.930;8.660;2023-04-25T04:05:22;5.97;;;5.07;;
17340;SDS011;8788;49.930;8.660;2023-04-25T04:07:53;6.10;;;5.20;;
17340;SDS011;8788;49.930;8.660;2023-04-25T04:10:22;7.55;;;5.07;;
17340;SDS011;8788;49.930;8.660;2023-04-25T04:12:51;6.47;;;5.55;;
17340;SDS011;8788;49.930;8.660;2023-04-25T04:15:18;6.85;;;5.40;;
17340;SDS011;8788;49.930;8.660;2023-04-25T04:17:47;7.05;;;6.35;;
17340;SDS011;8788;49.930;8.660;2023-04-25T04:20:15;8.43;;;5.15;;
17340;SDS011;8788;49.930;8.660;2023-04-25T04:22:42;6.70;;;5.97;;
17340;SDS011;8788;49.930;8.660;2023-04-25T04:25:11;9.68;;;5.88;;
17340;SDS011;8788;49.930;8.660;2023-04-25T04:27:58;7.82;;;5.72;;
17340;SDS011;8788;49.930;8.660;2023-04-25T04:30:39;6.97;;;6.10;;
17340;SDS011;8788;49.930;8.660;2023-04-25T04:33:07;8.05;;;6.00;;
17340;SDS011;8788;49.930;8.660;2023-04-25T04:35:35;6.93;;;5.75;;
17340;SDS011;8788;49.930;8.660;2023-04-25T04:38:02;7.03;;;5.35;;
17340;SDS011;8788;49.930;8.660;2023-04-25T04:40:32;10.70;;;5.97;;
17340;SDS011;8788;49.930;8.660;2023-04-25T04:43:21;7.63;;;5.40;;
17340;SDS011;8788;49.930;8.660;2023-04-25T04:46:06;7.85;;;6.72;;
17340;SDS011;8788;49.930;8.660;2023-04-25T04:48:54;8.30;;;5.85;;
17340;SDS011;8788;49.930;8.660;2023-04-25T04:51:48;6.10;;;5.50;;
17340;SDS011;8788;49.930;8.660;2023-04-25T04:54:33;8.23;;;5.35;;
17340;SDS011;8788;49.930;8.660;2023-04-25T04:57:13;9.45;;;6.10;;
17340;SDS011;8788;49.930;8.660;2023-04-25T05:00:13;10.20;;;5.70;;
17340;SDS011;8788;49.930;8.660;2023-04-25T05:02:59;7.93;;;4.95;;
17340;SDS011;8788;49.930;8.660;2023-04-25T05:05:38;8.93;;;5.25;;
17340;SDS011;8788;49.930;8.660;2023-04-25T05:08:31;11.23;;;5.88;;
17340;SDS011;8788;49.930;8.660;2023-04-25T05:11:13;7.25;;;5.40;;
17340;SDS011;8788;49.930;8.660;2023-04-25T05:13:53;17.20;;;6.07;;
17340;SDS011;8788;49.930;8.660;2023-04-25T05:16:40;11.20;;;5.75;;
17340;SDS011;8788;49.930;8.660;2023-04-25T05:19:28;9.82;;;5.47;;
17340;SDS011;8788;49.930;8.660;2023-04-25T05:22:34;10.90;;;5.50;;
17340;SDS011;8788;49.930;8.660;2023-04-25T05:25:15;7.55;;;5.15;;
17340;SDS011;8788;49.930;8.660;2023-04-25T05:27:56;9.68;;;6.25;;
17340;SDS011;8788;49.930;8.660;2023-04-25T05:30:46;14.50;;;6.30;;
17340;SDS011;8788;49.930;8.660;2023-04-25T05:33:17;10.85;;;6.40;;
17340;SDS011;8788;49.930;8.660;2023-04-25T05:35:45;11.63;;;5.82;;
17340;SDS011;8788;49.930;8.660;2023-04-25T05:38:13;12.68;;;6.20;;
17340;SDS011;8788;49.930;8.660;2023-04-25T05:41:12;11.05;;;6.53;;
17340;SDS011;8788;49.930;8.660;2023-04-25T05:44:01;11.15;;;6.10;;
17340;SDS011;8788;49.930;8.660;2023-04-25T05:46:28;6.88;;;5.45;;
17340;SDS011;8788;49.930;8.660;2023-04-25T05:49:17;12.02;;;6.07;;
17340;SDS011;8788;49.930;8.660;2023-04-25T05:51:53;8.57;;;5.97;;
17340;SDS011;8788;49.930;8.660;2023-04-25T05:54:50;12.73;;;5.60;;
17340;SDS011;8788;49.930;8.660;2023-04-25T05:57:19;10.02;;;5.80;;
17340;SDS011;8788;49.930;8.660;2023-04-25T05:59:47;8.25;;;5.50;;
17340;SDS011;8788;49.930;8.660;2023-04-25T06:02:15;8.55;;;5.65;;
17340;SDS011;8788;49.930;8.660;2023-04-25T06:04:44;9.48;;;6.07;;
17340;SDS011;8788;49.930;8.660;2023-04-25T06:07:11;11.00;;;6.38;;
17340;SDS011;8788;49.930;8.660;2023-04-25T06:09:38;10.25;;;5.75;;
17340;SDS011;8788;49.930;8.660;2023-04-25T06:12:06;10.82;;;5.60;;
17340;SDS011;8788;49.930;8.660;2023-04-25T06:14:33;13.02;;;5.63;;
17340;SDS011;8788;49.930;8.660;2023-04-25T06:17:00;8.30;;;5.38;;
17340;SDS011;8788;49.930;8.660;2023-04-25T06:19:31;11.45;;;5.80;;
17340;SDS011;8788;49.930;8.660;2023-04-25T06:22:00;9.57;;;5.45;;
17340;SDS011;8788;49.930;8.660;2023-04-25T06:24:29;8.35;;;5.15;;
17340;SDS011;8788;49.930;8.660;2023-04-25T06:26:56;10.70;;;5.45;;
17340;SDS011;8788;49.930;8.660;2023-04-25T06:29:23;11.40;;;5.60;;
17340;SDS011;8788;49.930;8.660;2023-04-25T06:31:51;7.30;;;4.40;;
17340;SDS011;8788;49.930;8.660;2023-04-25T06:34:19;4.80;;;4.18;;
17340;SDS011;8788;49.930;8.660;2023-04-25T06:36:46;9.57;;;3.75;;
17340;SDS011;8788;49.930;8.660;2023-04-25T06:39:16;4.30;;;3.08;;
17340;SDS011;8788;49.930;8.660;2023-04-25T06:41:45;7.45;;;4.13;;
17340;SDS011;8788;49.930;8.660;2023-04-25T06:44:31;5.60;;;3.83;;
17340;SDS011;8788;49.930;8.660;2023-04-25T06:46:58;4.75;;;3.25;;
17340;SDS011;8788;49.930;8.660;2023-04-25T06:49:25;5.68;;;3.90;;
17340;SDS011;8788;49.930;8.660;2023-04-25T06:51:52;5.82;;;3.53;;
17340;SDS011;8788;49.930;8.660;2023-04-25T06:54:21;6.00;;;3.42;;
17340;SDS011;8788;49.930;8.660;2023-04-25T06:57:03;5.25;;;3.70;;
17340;SDS011;8788;49.930;8.660;2023-04-25T06:59:31;9.57;;;3.38;;
17340;SDS011;8788;49.930;8.660;2023-04-25T07:01:58;5.47;;;2.97;;
17340;SDS011;8788;49.930;8.660;2023-04-25T07:04:25;8.13;;;3.50;;
17340;SDS011;8788;49.930;8.660;2023-04-25T07:06:55;2.92;;;2.50;;
17340;SDS011;8788;49.930;8.660;2023-04-25T07:09:32;7.05;;;3.20;;
17340;SDS011;8788;49.930;8.660;2023-04-25T07:11:59;5.00;;;2.78;;
17340;SDS011;8788;49.930;8.660;2023-04-25T07:14:27;5.78;;;3.03;;
17340;SDS011;8788;49.930;8.660;2023-04-25T07:16:55;8.57;;;3.30;;
17340;SDS011;8788;49.930;8.660;2023-04-25T07:19:24;5.10;;;2.72;;
17340;SDS011;8788;49.930;8.660;2023-04-25T07:21:54;3.58;;;2.60;;
17340;SDS011;8788;49.930;8.660;2023-04-25T07:24:22;5.18;;;3.35;;
17340;SDS011;8788;49.930;8.660;2023-04-25T07:26:51;7.97;;;3.28;;
17340;SDS011;8788;49.930;8.660;2023-04-25T07:29:41;4.25;;;3.00;;
17340;SDS011;8788;49.930;8.660;2023-04-25T07:32:08;6.28;;;3.38;;
17340;SDS011;8788;49.930;8.660;2023-04-25T07:34:37;4.47;;;2.65;;
17340;SDS011;8788;49.930;8.660;2023-04-25T07:37:04;6.78;;;2.95;;
17340;SDS011;8788;49.930;8.660;2023-04-25T07:39:40;5.03;;;2.70;;
17340;SDS011;8788;49.930;8.660;2023-04-25T07:42:09;5.25;;;2.45;;
17340;SDS011;8788;49.930;8.660;2023-04-25T07:44:42;3.60;;;2.05;;
17340;SDS011;8788;49.930;8.660;2023-04-25T07:47:12;4.38;;;2.45;;
17340;SDS011;8788;49.930;8.660;2023-04-25T07:49:40;3.33;;;2.20;;
17340;SDS011;8788;49.930;8.660;2023-04-25T07:52:08;3.22;;;2.17;;
17340;SDS011;8788;49.930;8.660;2023-04-25T07:54:37;1.85;;;1.58;;
17340;SDS011;8788;49.930;8.660;2023-04-25T07:57:13;5.68;;;2.40;;
17340;SDS011;8788;49.930;8.660;2023-04-25T07:59:43;4.60;;;2.00;;
17340;SDS011;8788;49.930;8.660;2023-04-25T08:02:10;3.90;;;2.35;;
17340;SDS011;8788;49.930;8.660;2023-04-25T08:04:38;3.70;;;2.10;;
17340;SDS011;8788;49.930;8.660;2023-04-25T08:07:07;8.05;;;3.10;;
17340;SDS011;8788;49.930;8.660;2023-04-25T08:09:46;10.88;;;2.97;;
17340;SDS011;8788;49.930;8.660;2023-04-25T08:12:23;3.50;;;1.92;;
17340;SDS011;8788;49.930;8.660;2023-04-25T08:14:50;2.53;;;1.95;;
17340;SDS011;8788;49.930;8.660;2023-04-25T08:17:17;9.02;;;2.35;;
17340;SDS011;8788;49.930;8.660;2023-04-25T08:19:44;4.55;;;2.05;;
17340;SDS011;8788;49.930;8.660;2023-04-25T08:22:21;8.25;;;2.60;;
17340;SDS011;8788;49.930;8.660;2023-04-25T08:24:53;7.78;;;2.38;;
17340;SDS011;8788;49.930;8.660;2023-04-25T08:27:22;5.13;;;2.47;;
17340;SDS011;8788;49.930;8.660;2023-04-25T08:29:50;6.35;;;2.15;;
17340;SDS011;8788;49.930;8.660;2023-04-25T08:32:18;4.55;;;2.15;;
17340;SDS011;8788;49.930;8.660;2023-04-25T08:35:02;2.38;;;2.17;;
17340;SDS011;8788;49.930;8.660;2023-04-25T08:37:29;4.30;;;2.45;;
17340;SDS011;8788;49.930;8.660;2023-04-25T08:40:01;3.15;;;2.08;;
17340;SDS011;8788;49.930;8.660;2023-04-25T08:42:51;3.67;;;2.33;;
17340;SDS011;8788;49.930;8.660;2023-04-25T08:45:20;4.07;;;2.45;;
17340;SDS011;8788;49.930;8.660;2023-04-25T08:47:48;5.70;;;2.10;;
17340;SDS011;8788;49.930;8.660;2023-04-25T08:50:19;3.78;;;2.03;;
17340;SDS011;8788;49.930;8.660;2023-04-25T08:52:50;5.68;;;2.10;;
17340;SDS011;8788;49.930;8.660;2023-04-25T08:55:20;1.92;;;1.75;;
17340;SDS011;8788;49.930;8.660;2023-04-25T08:57:53;3.50;;;1.90;;
17340;SDS011;8788;49.930;8.660;2023-04-25T09:00:22;4.95;;;2.58;;
17340;SDS011;8788;49.930;8.660;2023-04-25T09:02:50;3.05;;;2.20;;
17340;SDS011;8788;49.930;8.660;2023-04-25T09:05:17;4.80;;;2.03;;
17340;SDS011;8788;49.930;8.660;2023-04-25T09:07:45;10.43;;;2.22;;
17340;SDS011;8788;49.930;8.660;2023-04-25T09:10:12;2.47;;;2.03;;
17340;SDS011;8788;49.930;8.660;2023-04-25T09:12:39;6.53;;;2.22;;
17340;SDS011;8788;49.930;8.660;2023-04-25T09:15:10;3.03;;;2.10;;
17340;SDS011;8788;49.930;8.660;2023-04-25T09:18:06;3.20;;;2.13;;
17340;SDS011;8788;49.930;8.660;2023-04-25T09:20:41;2.58;;;1.88;;
17340;SDS011;8788;49.930;8.660;2023-04-25T09:23:09;6.72;;;2.17;;
17340;SDS011;8788;49.930;8.660;2023-04-25T09:25:37;5.40;;;2.88;;
17340;SDS011;8788;49.930;8.660;2023-04-25T09:28:06;2.22;;;1.88;;
17340;SDS011;8788;49.930;8.660;2023-04-25T09:30:36;2.80;;;2.10;;
17340;SDS011;8788;49.930;8.660;2023-04-25T09:33:09;5.97;;;2.88;;
17340;SDS011;8788;49.930;8.660;2023-04-25T09:35:42;6.60;;;2.40;;
17340;SDS011;8788;49.930;8.660;2023-04-25T09:38:21;4.15;;;2.30;;
17340;SDS011;8788;49.930;8.660;2023-04-25T09:40:56;4.28;;;2.05;;
17340;SDS011;8788;49.930;8.660;2023-04-25T09:43:37;6.95;;;2.35;;
17340;SDS011;8788;49.930;8.660;2023-04-25T09:46:08;3.92;;;2.00;;
17340;SDS011;8788;49.930;8.660;2023-04-25T09:48:40;3.53;;;2.78;;
17340;SDS011;8788;49.930;8.660;2023-04-25T09:51:17;4.38;;;2.70;;
17340;SDS011;8788;49.930;8.660;2023-04-25T09:53:45;2.90;;;2.63;;
17340;SDS011;8788;49.930;8.660;2023-04-25T09:56:38;2.67;;;2.00;;
17340;SDS011;8788;49.930;8.660;2023-04-25T09:59:11;2.53;;;2.03;;
17340;SDS011;8788;49.930;8.660;2023-04-25T10:01:40;3.47;;;2.30;;
17340;SDS011;8788;49.930;8.660;2023-04-25T10:04:20;1.83;;;1.73;;
17340;SDS011;8788;49.930;8.660;2023-04-25T10:06:56;4.35;;;2.20;;
17340;SDS011;8788;49.930;8.660;2023-04-25T10:09:26;6.07;;;2.42;;
17340;SDS011;8788;49.930;8.660;2023-04-25T10:11:57;3.45;;;2.63;;
17340;SDS011;8788;49.930;8.660;2023-04-25T10:14:25;4.57;;;2.90;;
17340;SDS011;8788;49.930;8.660;2023-04-25T10:16:54;3.25;;;2.28;;
17340;SDS011;8788;49.930;8.660;2023-04-25T10:19:22;5.50;;;3.20;;
17340;SDS011;8788;49.930;8.660;2023-04-25T10:21:51;6.07;;;3.20;;
17340;SDS011;8788;49.930;8.660;2023-04-25T10:24:19;3.05;;;2.75;;
17340;SDS011;8788;49.930;8.660;2023-04-25T10:26:46;6.05;;;3.03;;
17340;SDS011;8788;49.930;8.660;2023-04-25T10:29:21;6.60;;;3.30;;
17340;SDS011;8788;49.930;8.660;2023-04-25T10:31:49;6.55;;;3.42;;
17340;SDS011;8788;49.930;8.660;2023-04-25T10:34:17;3.78;;;3.15;;
17340;SDS011;8788;49.930;8.660;2023-04-25T10:36:49;5.20;;;3.10;;
17340;SDS011;8788;49.930;8.660;2023-04-25T10:39:21;3.92;;;2.90;;
17340;SDS011;8788;49.930;8.660;2023-04-25T10:41:52;4.72;;;3.13;;
17340;SDS011;8788;49.930;8.660;2023-04-25T10:44:21;3.22;;;2.75;;
17340;SDS011;8788;49.930;8.660;2023-04-25T10:46:49;7.70;;;3.40;;
17340;SDS011;8788;49.930;8.660;2023-04-25T10:52:13;5.90;;;3.30;;
17340;SDS011;8788;49.930;8.660;2023-04-25T10:54:47;4.13;;;3.05;;
17340;SDS011;8788;49.930;8.660;2023-04-25T10:57:32;3.63;;;3.22;;
17340;SDS011;8788;49.930;8.660;2023-04-25T11:00:07;3.88;;;2.50;;
17340;SDS011;8788;49.930;8.660;2023-04-25T11:02:37;3.97;;;2.58;;
17340;SDS011;8788;49.930;8.660;2023-04-25T11:05:09;6.00;;;3.50;;
17340;SDS011;8788;49.930;8.660;2023-04-25T11:07:43;3.83;;;3.33;;
17340;SDS011;8788;49.930;8.660;2023-04-25T11:10:15;4.90;;;3.30;;
17340;SDS011;8788;49.930;8.660;2023-04-25T11:12:42;5.78;;;3.28;;
17340;SDS011;8788;49.930;8.660;2023-04-25T11:15:09;4.30;;;2.83;;
17340;SDS011;8788;49.930;8.660;2023-04-25T11:17:36;4.65;;;3.22;;
17340;SDS011;8788;49.930;8.660;2023-04-25T11:20:06;6.85;;;3.30;;
17340;SDS011;8788;49.930;8.660;2023-04-25T11:22:38;4.15;;;2.55;;
17340;SDS011;8788;49.930;8.660;2023-04-25T11:25:07;5.18;;;2.72;;
17340;SDS011;8788;49.930;8.660;2023-04-25T11:27:37;3.45;;;3.15;;
17340;SDS011;8788;49.930;8.660;2023-04-25T11:30:15;6.00;;;3.10;;
17340;SDS011;8788;49.930;8.660;2023-04-25T11:32:42;5.32;;;3.03;;
17340;SDS011;8788;49.930;8.660;2023-04-25T11:35:10;4.60;;;3.30;;
17340;SDS011;8788;49.930;8.660;2023-04-25T11:37:40;6.03;;;3.10;;
17340;SDS011;8788;49.930;8.660;2023-04-25T11:40:07;6.07;;;3.05;;
17340;SDS011;8788;49.930;8.660;2023-04-25T11:42:37;6.72;;;3.05;;
17340;SDS011;8788;49.930;8.660;2023-04-25T11:45:07;9.60;;;3.10;;
17340;SDS011;8788;49.930;8.660;2023-04-25T11:47:36;4.40;;;2.78;;
17340;SDS011;8788;49.930;8.660;2023-04-25T11:50:03;5.85;;;2.78;;
17340;SDS011;8788;49.930;8.660;2023-04-25T11:52:40;6.15;;;3.33;;
17340;SDS011;8788;49.930;8.660;2023-04-25T11:55:08;7.80;;;2.90;;
17340;SDS011;8788;49.930;8.660;2023-04-25T11:57:39;4.88;;;3.10;;
17340;SDS011;8788;49.930;8.660;2023-04-25T12:00:08;4.40;;;3.17;;
17340;SDS011;8788;49.930;8.660;2023-04-25T12:02:39;3.05;;;2.75;;
17340;SDS011;8788;49.930;8.660;2023-04-25T12:05:08;5.18;;;2.55;;
17340;SDS011;8788;49.930;8.660;2023-04-25T12:07:35;6.55;;;2.63;;
17340;SDS011;8788;49.930;8.660;2023-04-25T12:10:08;7.32;;;3.15;;
17340;SDS011;8788;49.930;8.660;2023-04-25T12:12:36;5.05;;;2.70;;
17340;SDS011;8788;49.930;8.660;2023-04-25T12:15:10;5.65;;;3.22;;
17340;SDS011;8788;49.930;8.660;2023-04-25T12:17:40;5.90;;;3.08;;
17340;SDS011;8788;49.930;8.660;2023-04-25T12:20:09;4.18;;;2.50;;
17340;SDS011;8788;49.930;8.660;2023-04-25T12:22:39;7.60;;;2.67;;
17340;SDS011;8788;49.930;8.660;2023-04-25T12:25:11;5.80;;;2.83;;
17340;SDS011;8788;49.930;8.660;2023-04-25T12:27:39;4.97;;;2.95;;
17340;SDS011;8788;49.930;8.660;2023-04-25T12:30:09;8.98;;;2.65;;
17340;SDS011;8788;49.930;8.660;2023-04-25T12:32:36;5.10;;;2.65;;
17340;SDS011;8788;49.930;8.660;2023-04-25T12:35:04;3.15;;;2.50;;
17340;SDS011;8788;49.930;8.660;2023-04-25T12:37:32;5.60;;;2.85;;
17340;SDS011;8788;49.930;8.660;2023-04-25T12:39:59;4.55;;;2.47;;
17340;SDS011;8788;49.930;8.660;2023-04-25T12:42:27;2.95;;;2.15;;
17340;SDS011;8788;49.930;8.660;2023-04-25T12:44:54;3.85;;;2.20;;
17340;SDS011;8788;49.930;8.660;2023-04-25T12:47:21;3.60;;;2.40;;
17340;SDS011;8788;49.930;8.660;2023-04-25T12:49:48;4.30;;;2.25;;
17340;SDS011;8788;49.930;8.660;2023-04-25T12:52:16;6.05;;;1.83;;
17340;SDS011;8788;49.930;8.660;2023-04-25T12:54:43;5.32;;;2.33;;
17340;SDS011;8788;49.930;8.660;2023-04-25T12:57:10;4.38;;;2.42;;
17340;SDS011;8788;49.930;8.660;2023-04-25T12:59:38;6.43;;;2.30;;
17340;SDS011;8788;49.930;8.660;2023-04-25T13:02:06;5.32;;;2.55;;
17340;SDS011;8788;49.930;8.660;2023-04-25T13:04:33;7.88;;;2.22;;
17340;SDS011;8788;49.930;8.660;2023-04-25T13:07:00;2.72;;;1.90;;
17340;SDS011;8788;49.930;8.660;2023-04-25T13:09:27;5.80;;;2.22;;
17340;SDS011;8788;49.930;8.660;2023-04-25T13:11:54;5.15;;;2.22;;
17340;SDS011;8788;49.930;8.660;2023-04-25T13:14:21;6.78;;;2.63;;
17340;SDS011;8788;49.930;8.660;2023-04-25T13:16:49;4.00;;;2.35;;
17340;SDS011;8788;49.930;8.660;2023-04-25T13:19:16;4.05;;;1.77;;
17340;SDS011;8788;49.930;8.660;2023-04-25T13:21:43;7.55;;;2.00;;
17340;SDS011;8788;49.930;8.660;2023-04-25T13:24:10;4.43;;;1.70;;
17340;SDS011;8788;49.930;8.660;2023-04-25T13:26:37;4.93;;;2.13;;
17340;SDS011;8788;49.930;8.660;2023-04-25T13:29:05;5.60;;;2.08;;
17340;SDS011;8788;49.930;8.660;2023-04-25T13:31:32;4.50;;;2.13;;
17340;SDS011;8788;49.930;8.660;2023-04-25T13:34:01;5.82;;;2.00;;
17340;SDS011;8788;49.930;8.660;2023-04-25T13:36:28;3.65;;;2.05;;
17340;SDS011;8788;49.930;8.660;2023-04-25T13:38:57;3.40;;;2.10;;
17340;SDS011;8788;49.930;8.660;2023-04-25T13:41:24;5.07;;;1.92;;
17340;SDS011;8788;49.930;8.660;2023-04-25T13:43:51;6.25;;;2.33;;
17340;SDS011;8788;49.930;8.660;2023-04-25T13:46:18;3.50;;;2.20;;
17340;SDS011;8788;49.930;8.660;2023-04-25T13:48:45;5.38;;;2.35;;
17340;SDS011;8788;49.930;8.660;2023-04-25T13:51:15;4.55;;;2.20;;
17340;SDS011;8788;49.930;8.660;2023-04-25T13:53:43;7.75;;;2.55;;
17340;SDS011;8788;49.930;8.660;2023-04-25T13:56:10;4.15;;;2.08;;
17340;SDS011;8788;49.930;8.660;2023-04-25T13:58:37;4.63;;;2.42;;
17340;SDS011;8788;49.930;8.660;2023-04-25T14:01:05;3.15;;;2.00;;
17340;SDS011;8788;49.930;8.660;2023-04-25T14:03:32;6.43;;;2.92;;
17340;SDS011;8788;49.930;8.660;2023-04-25T14:05:59;5.53;;;2.50;;
17340;SDS011;8788;49.930;8.660;2023-04-25T14:08:28;3.75;;;2.15;;
17340;SDS011;8788;49.930;8.660;2023-04-25T14:10:55;3.10;;;2.40;;
17340;SDS011;8788;49.930;8.660;2023-04-25T14:13:23;5.88;;;2.65;;
17340;SDS011;8788;49.930;8.660;2023-04-25T14:15:50;5.22;;;2.22;;
17340;SDS011;8788;49.930;8.660;2023-04-25T14:18:17;2.65;;;2.30;;
17340;SDS011;8788;49.930;8.660;2023-04-25T14:20:44;3.63;;;1.73;;
17340;SDS011;8788;49.930;8.660;2023-04-25T14:23:11;3.47;;;2.17;;
17340;SDS011;8788;49.930;8.660;2023-04-25T14:25:40;3.08;;;1.80;;
17340;SDS011;8788;49.930;8.660;2023-04-25T14:28:08;5.78;;;2.60;;
17340;SDS011;8788;49.930;8.660;2023-04-25T14:30:36;6.20;;;2.60;;
17340;SDS011;8788;49.930;8.660;2023-04-25T14:33:03;6.68;;;2.17;;
17340;SDS011;8788;49.930;8.660;2023-04-25T14:35:30;5.95;;;2.38;;
17340;SDS011;8788;49.930;8.660;2023-04-25T14:37:57;4.43;;;2.50;;
17340;SDS011;8788;49.930;8.660;2023-04-25T14:40:25;6.15;;;2.20;;
17340;SDS011;8788;49.930;8.660;2023-04-25T14:42:54;4.07;;;1.95;;
17340;SDS011;8788;49.930;8.660;2023-04-25T14:45:21;3.70;;;1.85;;
17340;SDS011;8788;49.930;8.660;2023-04-25T14:47:48;4.93;;;2.17;;
17340;SDS011;8788;49.930;8.660;2023-04-25T14:50:15;5.32;;;2.00;;
17340;SDS011;8788;49.930;8.660;2023-04-25T14:52:43;1.98;;;1.75;;
17340;SDS011;8788;49.930;8.660;2023-04-25T14:55:11;5.15;;;2.30;;
17340;SDS011;8788;49.930;8.660;2023-04-25T14:57:38;4.80;;;2.60;;
17340;SDS011;8788;49.930;8.660;2023-04-25T15:00:07;5.03;;;1.92;;
17340;SDS011;8788;49.930;8.660;2023-04-25T15:02:37;5.80;;;1.92;;
17340;SDS011;8788;49.930;8.660;2023-04-25T15:05:05;3.58;;;1.98;;
17340;SDS011;8788;49.930;8.660;2023-04-25T15:07:33;4.88;;;1.67;;
17340;SDS011;8788;49.930;8.660;2023-04-25T15:10:00;4.82;;;2.03;;
17340;SDS011;8788;49.930;8.660;2023-04-25T15:12:28;4.57;;;2.47;;
17340;SDS011;8788;49.930;8.660;2023-04-25T15:14:55;3.55;;;1.60;;
17340;SDS011;8788;49.930;8.660;2023-04-25T15:17:24;4.47;;;2.78;;
17340;SDS011;8788;49.930;8.660;2023-04-25T15:19:51;10.45;;;3.58;;
17340;SDS011;8788;49.930;8.660;2023-04-25T15:22:19;5.93;;;2.17;;
17340;SDS011;8788;49.930;8.660;2023-04-25T15:24:47;4.85;;;2.35;;